createdAt,value
2023-04-02T00:00:35.729Z,17.30
2023-04-02T00:03:23.057Z,17.17
2023-04-02T00:05:54.999Z,15.77
2023-04-02T00:08:41.114Z,17.05
2023-04-02T00:11:09.749Z,16.95
2023-04-02T00:13:44.350Z,18.02
2023-04-02T00:16:20.062Z,19.92
2023-04-02T00:18:52.242Z,16.52
2023-04-02T00:21:34.680Z,18.83
2023-04-02T00:24:07.469Z,19.48
2023-04-02T00:26:38.600Z,19.95
2023-04-02T00:29:07.937Z,20.23
2023-04-02T00:34:08.141Z,17.33
2023-04-02T00:36:35.667Z,18.27
2023-04-02T00:39:08.593Z,13.43
2023-04-02T00:41:38.929Z,15.82
2023-04-02T00:44:06.532Z,17.02
2023-04-02T00:46:49.807Z,20.50
2023-04-02T00:49:22.765Z,19.58
2023-04-02T00:51:57.510Z,18.80
2023-04-02T00:54:30.453Z,20.48
2023-04-02T00:56:58.958Z,21.10
2023-04-02T00:59:36.931Z,19.67
2023-04-02T01:02:17.555Z,21.38
2023-04-02T01:04:54.482Z,21.77
2023-04-02T01:07:37.585Z,21.77
2023-04-02T01:10:25.469Z,22.20
2023-04-02T01:13:11.594Z,21.98
2023-04-02T01:18:37.999Z,19.23
2023-04-02T01:21:16.277Z,19.83
2023-04-02T01:24:13.785Z,21.20
2023-04-02T01:26:48.642Z,18.08
2023-04-02T01:29:31.925Z,19.98
2023-04-02T01:32:04.376Z,19.75
2023-04-02T01:34:32.333Z,20.20
2023-04-02T01:37:13.811Z,20.83
2023-04-02T01:39:58.869Z,20.73
2023-04-02T01:42:37.344Z,19.98
2023-04-02T01:45:16.432Z,19.27
2023-04-02T01:47:44.327Z,18.63
2023-04-02T01:50:25.897Z,19.92
2023-04-02T01:52:57.361Z,19.98
2023-04-02T01:55:32.993Z,19.05
2023-04-02T01:58:01.505Z,22.17
2023-04-02T02:00:30.490Z,21.65
2023-04-02T02:03:00.306Z,20.45
2023-04-02T02:05:28.647Z,19.08
2023-04-02T02:07:58.434Z,14.43
2023-04-02T02:10:34.925Z,19.17
2023-04-02T02:13:02.911Z,21.33
2023-04-02T02:15:33.782Z,22.45
2023-04-02T02:18:05.562Z,16.80
2023-04-02T02:20:34.598Z,22.50
2023-04-02T02:23:04.130Z,24.58
2023-04-02T02:25:34.272Z,20.83
2023-04-02T02:28:04.728Z,20.23
2023-04-02T02:30:47.455Z,15.95
2023-04-02T02:33:22.058Z,17.77
2023-04-02T02:36:03.187Z,17.65
2023-04-02T02:38:47.629Z,11.70
2023-04-02T02:41:37.948Z,23.50
2023-04-02T02:44:08.386Z,17.70
2023-04-02T02:46:39.890Z,20.20
2023-04-02T02:49:07.893Z,11.02
2023-04-02T02:51:59.237Z,12.18
2023-04-02T02:54:28.077Z,12.93
2023-04-02T02:57:00.175Z,13.48
2023-04-02T02:59:29.882Z,16.40
2023-04-02T03:01:58.050Z,15.00
2023-04-02T03:04:25.686Z,10.93
2023-04-02T03:06:53.938Z,8.63
2023-04-02T03:09:52.716Z,14.93
2023-04-02T03:12:38.702Z,13.95
2023-04-02T03:15:14.458Z,15.25
2023-04-02T03:18:12.036Z,18.33
2023-04-02T03:21:02.935Z,14.15
2023-04-02T03:23:37.441Z,15.55
2023-04-02T03:26:32.481Z,12.48
2023-04-02T03:29:05.137Z,15.00
2023-04-02T03:31:38.080Z,15.15
2023-04-02T03:34:13.904Z,7.55
2023-04-02T03:36:52.265Z,8.88
2023-04-02T03:39:31.303Z,11.40
2023-04-02T03:42:14.060Z,11.05
2023-04-02T03:44:53.091Z,11.93
2023-04-02T03:47:45.238Z,14.35
2023-04-02T03:50:23.905Z,13.57
2023-04-02T03:52:51.721Z,11.70
2023-04-02T03:55:24.293Z,11.98
2023-04-02T03:58:08.652Z,12.95
2023-04-02T04:00:43.236Z,15.43
2023-04-02T04:03:18.207Z,14.75
2023-04-02T04:05:53.529Z,12.07
2023-04-02T04:10:54.107Z,13.15
2023-04-02T04:13:30.174Z,9.93
2023-04-02T04:16:07.537Z,12.88
2023-04-02T04:18:49.725Z,12.52
2023-04-02T04:21:31.149Z,11.20
2023-04-02T04:24:04.293Z,14.80
2023-04-02T04:27:04.532Z,12.73
2023-04-02T04:29:58.501Z,14.32
2023-04-02T04:32:42.923Z,10.90
2023-04-02T04:38:27.813Z,10.13
2023-04-02T04:40:59.055Z,16.40
2023-04-02T04:43:52.022Z,10.48
2023-04-02T04:46:40.408Z,9.20
2023-04-02T04:49:39.423Z,8.93
2023-04-02T04:52:26.775Z,8.75
2023-04-02T04:54:54.232Z,6.80
2023-04-02T04:57:38.257Z,7.22
2023-04-02T05:00:23.349Z,6.93
2023-04-02T05:03:03.476Z,9.93
2023-04-02T05:05:33.786Z,10.90
2023-04-02T05:08:11.697Z,7.05
2023-04-02T05:10:46.430Z,8.85
2023-04-02T05:13:31.765Z,7.13
2023-04-02T05:16:22.636Z,9.98
2023-04-02T05:21:47.241Z,8.18
2023-04-02T05:25:01.203Z,8.32
2023-04-02T05:27:42.212Z,5.72
2023-04-02T05:30:14.934Z,4.70
2023-04-02T05:32:57.588Z,9.25
2023-04-02T05:35:35.769Z,6.20
2023-04-02T05:38:03.508Z,5.80
2023-04-02T05:40:43.018Z,4.97
2023-04-02T05:43:15.548Z,7.47
2023-04-02T05:45:46.118Z,5.72
2023-04-02T05:48:34.973Z,5.13
2023-04-02T05:51:05.086Z,5.68
2023-04-02T05:53:37.847Z,6.00
2023-04-02T05:56:17.641Z,4.57
2023-04-02T05:58:52.570Z,7.65
2023-04-02T06:01:38.671Z,7.13
2023-04-02T06:04:21.523Z,4.97
2023-04-02T06:06:54.939Z,4.50
2023-04-02T06:09:37.924Z,6.45
2023-04-02T06:12:14.603Z,3.90
2023-04-02T06:14:41.710Z,6.53
2023-04-02T06:17:21.827Z,6.93
2023-04-02T06:19:49.870Z,4.97
2023-04-02T06:22:39.721Z,6.28
2023-04-02T06:25:30.204Z,6.03
2023-04-02T06:28:01.668Z,6.35
2023-04-02T06:30:33.670Z,4.43
2023-04-02T06:33:01.125Z,7.03
2023-04-02T06:35:28.485Z,4.22
2023-04-02T06:37:59.132Z,7.57
2023-04-02T06:40:33.467Z,6.55
2023-04-02T06:43:09.305Z,6.38
2023-04-02T06:45:42.362Z,5.30
2023-04-02T06:48:19.511Z,5.22
2023-04-02T06:50:56.811Z,4.78
2023-04-02T06:53:34.609Z,4.43
2023-04-02T06:56:47.176Z,5.35
2023-04-02T06:59:16.635Z,6.22
2023-04-02T07:02:07.701Z,7.57
2023-04-02T07:04:36.086Z,4.38
2023-04-02T07:07:03.136Z,5.97
2023-04-02T07:09:30.987Z,4.82
2023-04-02T07:11:58.205Z,4.93
2023-04-02T07:14:26.416Z,3.05
2023-04-02T07:16:53.530Z,6.28
2023-04-02T07:19:23.320Z,4.53
2023-04-02T07:21:52.758Z,10.15
2023-04-02T07:24:26.293Z,9.30
2023-04-02T07:26:57.637Z,6.32
2023-04-02T07:29:25.156Z,4.00
2023-04-02T07:31:54.171Z,3.80
2023-04-02T07:34:22.037Z,5.38
2023-04-02T07:36:49.982Z,6.00
2023-04-02T07:39:17.455Z,5.82
2023-04-02T07:41:56.475Z,4.25
2023-04-02T07:44:24.321Z,5.07
2023-04-02T07:47:01.365Z,6.07
2023-04-02T07:49:29.186Z,4.18
2023-04-02T07:51:56.321Z,3.05
2023-04-02T07:54:23.947Z,6.70
2023-04-02T07:56:51.260Z,6.53
2023-04-02T07:59:19.589Z,6.22
2023-04-02T08:01:49.209Z,6.70
2023-04-02T08:04:20.684Z,6.25
2023-04-02T08:06:49.683Z,4.75
2023-04-02T08:09:18.387Z,4.82
2023-04-02T08:11:46.896Z,5.40
2023-04-02T08:14:15.031Z,5.95
2023-04-02T08:16:53.943Z,2.30
2023-04-02T08:19:54.780Z,5.00
2023-04-02T08:22:22.391Z,2.58
2023-04-02T08:24:50.331Z,5.13
2023-04-02T08:27:18.903Z,4.30
2023-04-02T08:29:46.782Z,4.85
2023-04-02T08:32:19.151Z,3.08
2023-04-02T08:34:47.606Z,1.17
2023-04-02T08:37:14.831Z,1.98
2023-04-02T08:39:42.270Z,3.42
2023-04-02T08:42:43.325Z,2.22
2023-04-02T08:48:05.707Z,1.85
2023-04-02T08:50:36.568Z,1.50
2023-04-02T08:53:10.008Z,1.27
2023-04-02T08:55:43.200Z,2.22
2023-04-02T08:58:42.126Z,3.03
2023-04-02T09:01:52.199Z,3.33
2023-04-02T09:04:29.177Z,3.67
2023-04-02T09:06:58.665Z,2.70
2023-04-02T09:09:27.307Z,2.05
2023-04-02T09:12:01.406Z,3.03
2023-04-02T09:14:45.422Z,3.08
2023-04-02T09:17:22.019Z,3.72
2023-04-02T09:20:01.149Z,1.88
2023-04-02T09:22:31.994Z,2.30
2023-04-02T09:25:02.367Z,2.75
2023-04-02T09:27:35.244Z,3.25
2023-04-02T09:30:33.528Z,1.88
2023-04-02T09:33:07.771Z,2.58
2023-04-02T09:35:49.599Z,3.80
2023-04-02T09:38:30.959Z,1.95
2023-04-02T09:41:20.212Z,2.45
2023-04-02T09:43:47.835Z,2.08
2023-04-02T09:46:23.745Z,1.70
2023-04-02T09:51:31.857Z,2.40
2023-04-02T09:54:02.356Z,2.47
2023-04-02T09:56:31.557Z,2.13
2023-04-02T09:59:18.200Z,2.35
2023-04-02T10:01:57.042Z,3.33
2023-04-02T10:04:44.667Z,3.70
2023-04-02T10:07:30.746Z,3.05
2023-04-02T10:10:01.608Z,4.15
2023-04-02T10:15:24.936Z,4.90
2023-04-02T10:18:03.696Z,3.25
2023-04-02T10:23:19.608Z,2.15
2023-04-02T10:26:10.113Z,1.20
2023-04-02T10:28:55.425Z,3.83
2023-04-02T10:31:38.147Z,5.30
2023-04-02T10:34:17.052Z,4.28
2023-04-02T10:37:11.340Z,5.80
2023-04-02T10:39:47.439Z,4.47
2023-04-02T10:42:18.614Z,5.53
2023-04-02T10:45:00.982Z,5.57
2023-04-02T10:47:52.035Z,4.22
2023-04-02T10:50:41.137Z,6.75
2023-04-02T10:53:40.834Z,6.13
2023-04-02T10:56:12.892Z,6.55
2023-04-02T10:59:02.994Z,3.42
2023-04-02T11:01:33.026Z,5.13
2023-04-02T11:06:46.486Z,5.45
2023-04-02T11:09:22.148Z,5.18
2023-04-02T11:11:54.960Z,5.72
2023-04-02T11:14:30.135Z,6.13
2023-04-02T11:17:00.850Z,4.82
2023-04-02T11:19:30.558Z,4.90
2023-04-02T11:22:02.529Z,4.97
2023-04-02T11:24:34.212Z,4.80
2023-04-02T11:27:27.626Z,4.75
2023-04-02T11:30:22.866Z,5.22
2023-04-02T11:32:52.524Z,4.07
2023-04-02T11:35:31.993Z,4.25
2023-04-02T11:38:22.401Z,4.90
2023-04-02T11:40:59.854Z,4.43
2023-04-02T11:43:33.281Z,4.40
2023-04-02T11:46:16.736Z,3.28
2023-04-02T11:48:44.537Z,4.10
2023-04-02T11:51:21.468Z,4.70
2023-04-02T11:53:54.865Z,4.63
2023-04-02T11:56:51.574Z,4.10
2023-04-02T11:59:32.645Z,4.60
2023-04-02T12:02:11.863Z,3.45
2023-04-02T12:05:02.734Z,3.95
2023-04-02T12:07:52.384Z,3.63
2023-04-02T12:10:33.032Z,4.20
2023-04-02T12:13:00.367Z,4.22
2023-04-02T12:15:45.745Z,3.63
2023-04-02T12:18:23.305Z,4.00
2023-04-02T12:20:56.714Z,3.10
2023-04-02T12:23:31.454Z,3.65
2023-04-02T12:26:07.045Z,3.70
2023-04-02T12:28:38.335Z,2.92
2023-04-02T12:31:08.843Z,2.92
2023-04-02T12:33:59.380Z,3.65
2023-04-02T12:36:27.797Z,3.40
2023-04-02T12:38:57.865Z,2.92
2023-04-02T12:41:31.472Z,4.28
2023-04-02T12:44:02.133Z,3.83
2023-04-02T12:46:31.689Z,3.08
2023-04-02T12:51:44.956Z,2.70
2023-04-02T12:54:17.631Z,3.13
2023-04-02T12:56:47.753Z,2.90
2023-04-02T12:59:27.110Z,2.60
2023-04-02T13:01:57.344Z,2.70
2023-04-02T13:04:24.663Z,3.00
2023-04-02T13:06:55.205Z,3.28
2023-04-02T13:09:34.030Z,2.53
2023-04-02T13:12:02.918Z,2.83
2023-04-02T13:14:31.041Z,2.70
2023-04-02T13:16:58.674Z,2.58
2023-04-02T13:19:32.301Z,3.28
2023-04-02T13:22:03.349Z,2.65
2023-04-02T13:24:33.855Z,3.17
2023-04-02T13:27:03.009Z,3.30
2023-04-02T13:29:38.824Z,3.35
2023-04-02T13:32:11.473Z,3.47
2023-04-02T13:34:38.477Z,3.08
2023-04-02T13:37:06.105Z,2.22
2023-04-02T13:39:33.146Z,3.55
2023-04-02T13:42:03.368Z,2.28
2023-04-02T13:44:32.789Z,3.45
2023-04-02T13:47:00.735Z,2.55
2023-04-02T13:49:28.607Z,2.35
2023-04-02T13:52:04.122Z,2.13
2023-04-02T13:54:35.110Z,2.20
2023-04-02T13:57:03.831Z,2.55
2023-04-02T13:59:31.651Z,2.90
2023-04-02T14:02:12.770Z,2.65
2023-04-02T14:04:50.498Z,3.45
2023-04-02T14:07:20.834Z,2.78
2023-04-02T14:10:07.149Z,3.22
2023-04-02T14:12:37.966Z,2.78
2023-04-02T14:15:08.033Z,2.92
2023-04-02T14:17:49.949Z,2.92
2023-04-02T14:20:50.434Z,3.60
2023-04-02T14:23:57.139Z,2.65
2023-04-02T14:26:42.296Z,3.00
2023-04-02T14:29:30.642Z,2.95
2023-04-02T14:32:14.607Z,2.38
2023-04-02T14:35:22.874Z,3.45
2023-04-02T14:38:06.877Z,2.85
2023-04-02T14:40:34.796Z,2.42
2023-04-02T14:43:17.368Z,2.95
2023-04-02T14:46:02.179Z,2.38
2023-04-02T14:48:51.378Z,3.03
2023-04-02T14:51:42.013Z,2.72
2023-04-02T14:54:21.851Z,3.15
2023-04-02T14:56:56.551Z,2.50
2023-04-02T14:59:31.450Z,3.22
2023-04-02T15:02:39.173Z,3.10
2023-04-02T15:05:17.642Z,4.00
2023-04-02T15:07:59.392Z,3.45
2023-04-02T15:10:30.567Z,3.30
2023-04-02T15:13:04.021Z,4.32
2023-04-02T15:16:02.098Z,2.85
2023-04-02T15:18:30.832Z,3.53
2023-04-02T15:21:25.798Z,4.07
2023-04-02T15:24:17.178Z,3.75
2023-04-02T15:27:21.821Z,3.45
2023-04-02T15:30:11.043Z,2.25
2023-04-02T15:32:39.868Z,3.83
2023-04-02T15:35:40.052Z,4.00
2023-04-02T15:38:26.635Z,2.83
2023-04-02T15:41:12.507Z,3.55
2023-04-02T15:43:45.124Z,3.25
2023-04-02T15:46:36.268Z,2.60
2023-04-02T15:49:14.234Z,3.03
2023-04-02T15:52:05.857Z,2.45
2023-04-02T15:55:03.795Z,3.30
2023-04-02T15:58:01.660Z,2.80
2023-04-02T16:00:34.998Z,3.03
2023-04-02T16:03:32.088Z,3.50
2023-04-02T16:06:26.207Z,3.85
2023-04-02T16:09:26.368Z,3.63
2023-04-02T16:12:01.541Z,3.20
2023-04-02T16:14:32.294Z,3.90
2023-04-02T16:17:17.686Z,2.50
2023-04-02T16:19:56.421Z,2.80
2023-04-02T16:22:30.075Z,3.20
2023-04-02T16:25:23.022Z,3.10
2023-04-02T16:27:59.969Z,3.00
2023-04-02T16:30:39.694Z,3.08
2023-04-02T16:33:19.083Z,3.45
2023-04-02T16:36:24.131Z,3.50
2023-04-02T16:39:08.664Z,2.95
2023-04-02T16:41:58.140Z,3.38
2023-04-02T16:44:34.160Z,4.22
2023-04-02T16:48:04.409Z,4.10
2023-04-02T16:50:55.282Z,3.63
2023-04-02T16:54:00.437Z,4.90
2023-04-02T16:56:56.728Z,2.75
2023-04-02T16:59:40.109Z,4.70
2023-04-02T17:02:26.035Z,3.35
2023-04-02T17:05:10.130Z,4.47
2023-04-02T17:07:51.476Z,4.53
2023-04-02T17:10:34.369Z,2.78
2023-04-02T17:13:26.264Z,4.10
2023-04-02T17:16:12.191Z,4.03
2023-04-02T17:18:43.434Z,4.28
2023-04-02T17:21:15.137Z,3.58
2023-04-02T17:24:02.731Z,3.60
2023-04-02T17:26:34.754Z,3.95
2023-04-02T17:29:11.020Z,5.40
2023-04-02T17:31:42.649Z,4.68
2023-04-02T17:34:14.951Z,5.65
2023-04-02T17:37:10.893Z,4.13
2023-04-02T17:40:22.519Z,5.80
2023-04-02T17:43:14.394Z,5.20
2023-04-02T17:45:46.295Z,4.72
2023-04-02T17:48:20.672Z,4.07
2023-04-02T17:51:34.413Z,4.55
2023-04-02T17:54:09.133Z,5.10
2023-04-02T17:56:45.147Z,5.03
2023-04-02T18:00:15.138Z,5.82
2023-04-02T18:03:04.721Z,7.13
2023-04-02T18:06:28.855Z,6.25
2023-04-02T18:09:18.588Z,6.35
2023-04-02T18:12:06.530Z,5.65
2023-04-02T18:14:52.388Z,6.22
2023-04-02T18:17:54.409Z,5.78
2023-04-02T18:20:43.333Z,6.63
2023-04-02T18:23:36.530Z,6.50
2023-04-02T18:26:09.770Z,8.15
2023-04-02T18:29:08.845Z,8.80
2023-04-02T18:31:59.927Z,10.57
2023-04-02T18:34:49.392Z,9.75
2023-04-02T18:37:16.579Z,10.00
2023-04-02T18:40:05.093Z,10.50
2023-04-02T18:43:09.964Z,9.18
2023-04-02T18:46:11.703Z,10.48
2023-04-02T18:48:50.960Z,10.77
2023-04-02T18:51:23.762Z,11.30
2023-04-02T18:54:17.784Z,11.25
2023-04-02T18:56:48.678Z,10.68
2023-04-02T18:59:55.675Z,9.90
2023-04-02T19:02:34.673Z,10.45
2023-04-02T19:05:12.960Z,10.80
2023-04-02T19:07:43.594Z,9.48
2023-04-02T19:10:31.290Z,11.32
2023-04-02T19:12:58.889Z,9.35
2023-04-02T19:15:53.520Z,8.88
2023-04-02T19:18:42.384Z,9.55
2023-04-02T19:21:28.034Z,3.80
2023-04-02T19:24:04.482Z,9.60
2023-04-02T19:26:54.449Z,9.80
2023-04-02T19:29:28.000Z,9.32
2023-04-02T19:31:57.999Z,6.85
2023-04-02T19:34:57.607Z,11.35
2023-04-02T19:37:34.944Z,11.88
2023-04-02T19:40:26.178Z,12.32
2023-04-02T19:42:54.489Z,10.90
2023-04-02T19:45:34.657Z,8.45
2023-04-02T19:48:11.411Z,7.97
2023-04-02T19:50:40.045Z,8.80
2023-04-02T19:53:07.527Z,9.95
2023-04-02T19:55:35.992Z,9.80
2023-04-02T19:58:18.863Z,10.68
2023-04-02T20:00:47.250Z,9.88
2023-04-02T20:03:14.402Z,10.70
2023-04-02T20:05:41.967Z,9.52
2023-04-02T20:08:12.757Z,11.18
2023-04-02T20:10:43.978Z,10.68
2023-04-02T20:13:11.635Z,11.02
2023-04-02T20:15:40.613Z,10.63
2023-04-02T20:18:08.059Z,8.02
2023-04-02T20:20:35.908Z,10.20
2023-04-02T20:23:03.093Z,7.97
2023-04-02T20:25:30.548Z,8.40
2023-04-02T20:27:57.729Z,10.25
2023-04-02T20:30:25.378Z,8.68
2023-04-02T20:32:52.475Z,9.07
2023-04-02T20:35:19.773Z,10.32
2023-04-02T20:37:47.221Z,7.63
2023-04-02T20:40:14.931Z,11.40
2023-04-02T20:42:41.876Z,9.80
2023-04-02T20:45:30.801Z,8.25
2023-04-02T20:48:05.257Z,9.57
2023-04-02T20:50:39.092Z,9.25
2023-04-02T20:53:09.165Z,9.35
2023-04-02T20:55:50.397Z,8.45
2023-04-02T20:58:19.182Z,10.80
2023-04-02T21:00:50.241Z,7.00
2023-04-02T21:03:17.227Z,10.27
2023-04-02T21:05:46.023Z,8.45
2023-04-02T21:08:14.600Z,8.27
2023-04-02T21:10:42.314Z,10.50
2023-04-02T21:13:09.314Z,7.68
2023-04-02T21:15:43.127Z,9.38
2023-04-02T21:18:10.258Z,8.52
2023-04-02T21:20:37.624Z,8.63
2023-04-02T21:23:08.252Z,9.73
2023-04-02T21:25:36.957Z,9.88
2023-04-02T21:28:04.053Z,6.47
2023-04-02T21:30:33.217Z,7.65
2023-04-02T21:33:00.372Z,8.35
2023-04-02T21:35:30.660Z,8.25
2023-04-02T21:37:57.828Z,9.45
2023-04-02T21:40:25.149Z,7.75
2023-04-02T21:42:52.103Z,10.35
2023-04-02T21:45:19.496Z,8.65
2023-04-02T21:47:46.518Z,8.90
2023-04-02T21:50:13.977Z,7.45
2023-04-02T21:52:40.993Z,7.88
2023-04-02T21:55:08.831Z,5.10
2023-04-02T21:57:36.426Z,8.90
2023-04-02T22:00:08.459Z,7.20
2023-04-02T22:02:35.632Z,9.07
2023-04-02T22:05:03.268Z,8.20
2023-04-02T22:07:31.090Z,8.82
2023-04-02T22:09:58.479Z,9.07
2023-04-02T22:12:25.581Z,8.57
2023-04-02T22:14:53.004Z,7.90
2023-04-02T22:17:20.085Z,8.93
2023-04-02T22:19:47.348Z,8.85
2023-04-02T22:22:14.343Z,8.93
2023-04-02T22:24:42.646Z,8.75
2023-04-02T22:27:09.605Z,8.98
2023-04-02T22:29:37.040Z,8.88
2023-04-02T22:32:04.009Z,9.23
2023-04-02T22:34:31.497Z,9.77
2023-04-02T22:36:58.466Z,9.27
2023-04-02T22:39:25.833Z,6.53
2023-04-02T22:41:52.762Z,8.15
2023-04-02T22:44:20.143Z,7.20
2023-04-02T22:46:47.171Z,7.70
2023-04-02T22:49:19.222Z,7.75
2023-04-02T22:51:53.421Z,6.85
2023-04-02T22:54:21.158Z,5.82
2023-04-02T22:56:48.256Z,7.07
2023-04-02T22:59:16.436Z,7.15
2023-04-02T23:01:43.539Z,7.13
2023-04-02T23:04:10.886Z,7.53
2023-04-02T23:06:37.928Z,6.68
2023-04-02T23:09:05.264Z,6.68
2023-04-02T23:11:32.551Z,6.85
2023-04-02T23:14:00.110Z,7.53
2023-04-02T23:16:29.435Z,5.72
2023-04-02T23:18:57.686Z,5.15
2023-04-02T23:21:25.999Z,5.82
2023-04-02T23:23:55.361Z,6.10
2023-04-02T23:26:29.558Z,6.15
2023-04-02T23:28:58.796Z,6.22
2023-04-02T23:31:26.531Z,5.88
2023-04-02T23:33:54.297Z,5.55
2023-04-02T23:36:30.405Z,5.07
2023-04-02T23:39:01.634Z,4.65
2023-04-02T23:41:30.540Z,4.72
2023-04-02T23:43:58.746Z,3.63
2023-04-02T23:46:26.452Z,4.70
2023-04-02T23:48:58.606Z,5.72
2023-04-02T23:51:26.800Z,5.47
2023-04-02T23:53:57.928Z,5.13
2023-04-02T23:56:25.059Z,5.18
2023-04-02T23:58:52.384Z,4.10
